Time;durP1;ratioP1;P1;durP2;ratioP2;P2;SDS_P1;SDS_P2;PMS_P1;PMS_P2;Temp;Humidity;BMP_temperature;BMP_pressure;BME280_temperature;BME280_humidity;BME280_pressure;Samples;Min_cycle;Max_cycle;Signal;HPM_P1;HPM_P2
2022/04/21 00:00:35;;;;;;;6.43;3.17;;;;;;;;;;5000431;28;20141;-61
2022/04/21 00:03:03;;;;;;;3.63;2.80;;;;;;;;;;5000206;28;20325;-61
2022/04/21 00:05:36;;;;;;;6.63;3.17;;;;;;;;;;4998790;28;20081;-61
2022/04/21 00:08:03;;;;;;;5.95;3.10;;;;;;;;;;5001344;28;20133;-61
2022/04/21 00:10:30;;;;;;;5.20;2.90;;;;;;;;;;5005925;28;20077;-61
2022/04/21 00:12:57;;;;;;;4.57;2.90;;;;;;;;;;5004592;28;20097;-61
2022/04/21 00:15:24;;;;;;;4.60;3.10;;;;;;;;;;5000846;28;20050;-61
2022/04/21 00:17:50;;;;;;;6.47;3.05;;;;;;;;;;4987124;28;20054;-61
2022/04/21 00:20:17;;;;;;;4.72;3.08;;;;;;;;;;5000850;28;20077;-61
2022/04/21 00:25:31;;;;;;;5.53;2.92;;;;;;;;;;5001829;28;20049;-61
2022/04/21 00:27:58;;;;;;;6.78;3.80;;;;;;;;;;5003232;28;20144;-61
2022/04/21 00:30:25;;;;;;;5.10;3.28;;;;;;;;;;5000099;28;20056;-61
2022/04/21 00:32:54;;;;;;;5.43;3.20;;;;;;;;;;4999710;28;20046;-61
2022/04/21 00:35:24;;;;;;;4.00;3.28;;;;;;;;;;5001550;28;20044;-61
2022/04/21 00:37:54;;;;;;;7.18;3.35;;;;;;;;;;5000848;28;20129;-61
2022/04/21 00:40:29;;;;;;;4.68;3.38;;;;;;;;;;5005447;28;20073;-61
2022/04/21 00:42:56;;;;;;;5.78;3.20;;;;;;;;;;5001075;28;20050;-61
2022/04/21 00:45:23;;;;;;;6.63;3.58;;;;;;;;;;5001129;28;20128;-61
2022/04/21 00:47:57;;;;;;;4.60;3.40;;;;;;;;;;4999124;28;20137;-61
2022/04/21 00:50:24;;;;;;;4.82;3.45;;;;;;;;;;4999140;28;20903;-61
2022/04/21 00:52:51;;;;;;;5.93;3.40;;;;;;;;;;5004253;28;20502;-61
2022/04/21 00:55:19;;;;;;;5.30;3.30;;;;;;;;;;4995492;28;20137;-61
2022/04/21 00:57:46;;;;;;;6.00;4.10;;;;;;;;;;5001765;28;20543;-61
2022/04/21 01:00:12;;;;;;;8.02;3.53;;;;;;;;;;4999723;28;20054;-61
2022/04/21 01:02:46;;;;;;;3.60;2.47;;;;;;;;;;5000600;28;20140;-60
2022/04/21 01:05:25;;;;;;;5.78;3.80;;;;;;;;;;5000668;28;20065;-60
2022/04/21 01:07:53;;;;;;;8.25;4.00;;;;;;;;;;5001503;28;20058;-61
2022/04/21 01:10:20;;;;;;;4.40;3.53;;;;;;;;;;5000655;28;20121;-60
2022/04/21 01:12:47;;;;;;;5.87;3.40;;;;;;;;;;4999164;28;20093;-60
2022/04/21 01:15:20;;;;;;;4.80;3.17;;;;;;;;;;4998541;28;20053;-60
2022/04/21 01:17:47;;;;;;;5.00;3.35;;;;;;;;;;4999126;28;20085;-60
2022/04/21 01:20:14;;;;;;;4.45;3.50;;;;;;;;;;5001698;28;20181;-60
2022/04/21 01:22:44;;;;;;;8.02;3.60;;;;;;;;;;4999974;28;20085;-61
2022/04/21 01:25:11;;;;;;;6.03;4.00;;;;;;;;;;5002274;28;20124;-61
2022/04/21 01:27:38;;;;;;;4.82;3.55;;;;;;;;;;4999135;28;20806;-61
2022/04/21 01:30:08;;;;;;;5.13;3.83;;;;;;;;;;4997942;28;20141;-61
2022/04/21 01:32:38;;;;;;;7.30;3.58;;;;;;;;;;5001378;28;20144;-60
2022/04/21 01:35:06;;;;;;;9.48;3.58;;;;;;;;;;5002162;28;20659;-61
2022/04/21 01:43:03;;;;;;;4.90;3.35;;;;;;;;;;5003261;28;20137;-60
2022/04/21 01:45:30;;;;;;;5.78;3.88;;;;;;;;;;4988496;28;20125;-60
2022/04/21 01:47:56;;;;;;;7.40;3.42;;;;;;;;;;5002381;28;20133;-60
2022/04/21 01:50:23;;;;;;;6.15;3.60;;;;;;;;;;4998777;28;20045;-60
2022/04/21 01:52:50;;;;;;;5.97;3.42;;;;;;;;;;4998673;28;20786;-60
2022/04/21 01:55:16;;;;;;;4.97;3.47;;;;;;;;;;4997247;28;20056;-61
2022/04/21 01:57:43;;;;;;;7.07;3.80;;;;;;;;;;5000566;28;20137;-60
2022/04/21 02:00:10;;;;;;;5.10;3.67;;;;;;;;;;5000134;28;20470;-60
2022/04/21 02:02:36;;;;;;;8.13;3.30;;;;;;;;;;5003099;28;20129;-60
2022/04/21 02:05:03;;;;;;;8.65;3.30;;;;;;;;;;4998209;28;20318;-60
2022/04/21 02:07:39;;;;;;;8.20;3.67;;;;;;;;;;4999974;28;20045;-61
2022/04/21 02:10:06;;;;;;;5.00;3.35;;;;;;;;;;4998829;28;20129;-60
2022/04/21 02:12:32;;;;;;;4.30;3.40;;;;;;;;;;5003554;28;20173;-60
2022/04/21 02:15:06;;;;;;;6.40;3.50;;;;;;;;;;5000649;28;20082;-60
2022/04/21 02:17:33;;;;;;;8.82;3.28;;;;;;;;;;4995129;28;20145;-60
2022/04/21 02:20:00;;;;;;;7.50;3.83;;;;;;;;;;4998941;28;20088;-60
2022/04/21 02:22:28;;;;;;;7.20;3.50;;;;;;;;;;4996103;28;20764;-61
2022/04/21 02:24:54;;;;;;;6.85;3.78;;;;;;;;;;4997282;28;20121;-60
2022/04/21 02:27:20;;;;;;;6.05;3.50;;;;;;;;;;5001021;28;20164;-60
2022/04/21 02:29:48;;;;;;;5.80;4.00;;;;;;;;;;5003100;28;20057;-61
2022/04/21 02:32:15;;;;;;;4.88;3.65;;;;;;;;;;4997793;28;20041;-60
2022/04/21 02:34:42;;;;;;;5.35;3.72;;;;;;;;;;4997241;28;20088;-60
2022/04/21 02:37:08;;;;;;;6.80;3.53;;;;;;;;;;4994296;28;20575;-60
2022/04/21 02:39:35;;;;;;;4.57;3.42;;;;;;;;;;5002981;28;20113;-61
2022/04/21 02:42:02;;;;;;;5.95;3.58;;;;;;;;;;4995562;28;20073;-60
2022/04/21 02:44:29;;;;;;;4.63;3.67;;;;;;;;;;4999813;28;20137;-61
2022/04/21 02:46:56;;;;;;;5.32;3.28;;;;;;;;;;4997836;28;20089;-60
2022/04/21 02:49:23;;;;;;;6.85;3.70;;;;;;;;;;5001591;28;20050;-61
2022/04/21 02:51:50;;;;;;;7.57;3.85;;;;;;;;;;5000438;28;20051;-61
2022/04/21 02:57:20;;;;;;;5.25;3.65;;;;;;;;;;4978894;28;20142;-61
2022/04/21 02:59:57;;;;;;;5.05;3.53;;;;;;;;;;4977930;28;20072;-62
2022/04/21 03:02:24;;;;;;;5.28;3.70;;;;;;;;;;4977127;28;20180;-61
2022/04/21 03:04:52;;;;;;;5.97;3.93;;;;;;;;;;4976708;28;20042;-61
2022/04/21 03:07:20;;;;;;;15.13;3.67;;;;;;;;;;4976554;28;20051;-61
2022/04/21 03:09:53;;;;;;;5.90;3.80;;;;;;;;;;4980373;28;20058;-62
2022/04/21 03:12:23;;;;;;;7.03;3.50;;;;;;;;;;4979949;28;20078;-61
2022/04/21 03:14:50;;;;;;;7.38;3.50;;;;;;;;;;4981356;28;20145;-61
2022/04/21 03:17:24;;;;;;;5.70;3.95;;;;;;;;;;4979809;28;20054;-61
2022/04/21 03:19:50;;;;;;;5.57;3.95;;;;;;;;;;4978086;28;20521;-60
2022/04/21 03:25:05;;;;;;;9.48;4.10;;;;;;;;;;4983145;28;20204;-61
2022/04/21 03:27:31;;;;;;;5.35;3.80;;;;;;;;;;4983406;28;20057;-61
2022/04/21 03:30:01;;;;;;;7.28;4.57;;;;;;;;;;4981558;28;20141;-61
2022/04/21 03:32:29;;;;;;;8.30;4.53;;;;;;;;;;4981340;28;20056;-61
2022/04/21 03:34:55;;;;;;;10.35;4.45;;;;;;;;;;4981968;28;20133;-61
2022/04/21 03:37:22;;;;;;;7.97;4.00;;;;;;;;;;4983317;28;20145;-61
2022/04/21 03:39:55;;;;;;;8.43;4.43;;;;;;;;;;4981521;28;20053;-61
2022/04/21 03:42:31;;;;;;;7.53;4.80;;;;;;;;;;4981275;28;20142;-61
2022/04/21 03:45:05;;;;;;;6.53;4.40;;;;;;;;;;4982743;28;20073;-61
2022/04/21 03:47:31;;;;;;;6.53;3.83;;;;;;;;;;4980976;28;20137;-61
2022/04/21 03:49:57;;;;;;;6.72;4.50;;;;;;;;;;4978631;28;20140;-61
2022/04/21 03:52:30;;;;;;;8.50;4.75;;;;;;;;;;4985316;28;20510;-61
2022/04/21 03:54:57;;;;;;;6.57;4.07;;;;;;;;;;4985447;28;20585;-61
2022/04/21 03:57:25;;;;;;;7.53;4.53;;;;;;;;;;5002230;28;20050;-61
2022/04/21 03:59:52;;;;;;;7.28;5.05;;;;;;;;;;5002953;28;20046;-61
2022/04/21 04:02:18;;;;;;;13.45;4.47;;;;;;;;;;5001507;28;20141;-61
2022/04/21 04:04:52;;;;;;;7.32;5.30;;;;;;;;;;5002668;28;20076;-61
2022/04/21 04:12:52;;;;;;;6.38;4.70;;;;;;;;;;5000170;28;20372;-61
2022/04/21 04:15:21;;;;;;;6.75;4.70;;;;;;;;;;5003472;28;20061;-61
2022/04/21 04:17:47;;;;;;;7.10;4.95;;;;;;;;;;4999035;28;20142;-61
2022/04/21 04:20:14;;;;;;;6.43;4.47;;;;;;;;;;4997156;28;20134;-61
2022/04/21 04:22:42;;;;;;;10.52;5.18;;;;;;;;;;5000649;28;20074;-61
2022/04/21 04:25:09;;;;;;;8.40;4.65;;;;;;;;;;4998942;28;20092;-61
2022/04/21 04:27:42;;;;;;;6.88;4.65;;;;;;;;;;5000851;28;20417;-61
2022/04/21 04:30:09;;;;;;;7.88;5.13;;;;;;;;;;5003635;28;20380;-61
2022/04/21 04:32:36;;;;;;;6.57;4.47;;;;;;;;;;5002450;28;20074;-61
2022/04/21 04:35:03;;;;;;;5.35;4.07;;;;;;;;;;5001144;28;20140;-61
2022/04/21 04:37:30;;;;;;;7.68;4.13;;;;;;;;;;4999552;28;20590;-62
2022/04/21 04:39:56;;;;;;;8.13;4.18;;;;;;;;;;5000353;28;20166;-61
2022/04/21 04:42:24;;;;;;;7.93;4.40;;;;;;;;;;5000675;28;20145;-61
2022/04/21 04:47:37;;;;;;;7.25;4.40;;;;;;;;;;4996864;28;20644;-61
2022/04/21 04:50:04;;;;;;;12.70;4.30;;;;;;;;;;4994139;28;20621;-61
2022/04/21 04:52:30;;;;;;;7.25;4.75;;;;;;;;;;5002036;28;20157;-61
2022/04/21 04:54:58;;;;;;;8.48;4.75;;;;;;;;;;5001232;28;20137;-62
2022/04/21 04:57:25;;;;;;;7.97;4.70;;;;;;;;;;5002109;28;20626;-62
2022/04/21 04:59:51;;;;;;;6.10;4.70;;;;;;;;;;4999271;28;20104;-62
2022/04/21 05:02:20;;;;;;;5.57;4.03;;;;;;;;;;4997513;28;20114;-62
2022/04/21 05:04:47;;;;;;;6.63;4.32;;;;;;;;;;4999837;28;20196;-62
2022/04/21 05:07:14;;;;;;;6.10;4.37;;;;;;;;;;5007138;28;20129;-62
2022/04/21 05:09:41;;;;;;;6.13;4.45;;;;;;;;;;4999027;28;20132;-62
2022/04/21 05:12:08;;;;;;;9.52;5.07;;;;;;;;;;5002013;28;20479;-61
2022/04/21 05:14:34;;;;;;;7.18;4.57;;;;;;;;;;5000763;28;20058;-62
2022/04/21 05:17:03;;;;;;;6.93;4.15;;;;;;;;;;4998273;28;20088;-62
2022/04/21 05:19:30;;;;;;;6.68;4.35;;;;;;;;;;5000481;28;20502;-62
2022/04/21 05:22:02;;;;;;;8.27;4.38;;;;;;;;;;5002480;28;20624;-62
2022/04/21 05:24:33;;;;;;;6.05;4.60;;;;;;;;;;4999840;28;20141;-62
2022/04/21 05:27:00;;;;;;;7.00;4.53;;;;;;;;;;4998172;28;20096;-62
2022/04/21 05:32:16;;;;;;;9.63;4.88;;;;;;;;;;4995246;28;20081;-62
2022/04/21 05:34:42;;;;;;;8.93;4.80;;;;;;;;;;5000104;28;20145;-62
2022/04/21 05:37:09;;;;;;;6.93;4.55;;;;;;;;;;4998926;28;20077;-62
2022/04/21 05:39:43;;;;;;;9.45;4.70;;;;;;;;;;5001065;28;20073;-62
2022/04/21 05:42:12;;;;;;;6.15;4.50;;;;;;;;;;5003958;28;20081;-62
2022/04/21 05:44:38;;;;;;;7.28;4.20;;;;;;;;;;4997789;28;20568;-62
2022/04/21 05:47:07;;;;;;;9.38;4.85;;;;;;;;;;5005159;28;20081;-62
2022/04/21 05:49:33;;;;;;;6.97;4.50;;;;;;;;;;5000117;28;20153;-62
2022/04/21 05:52:01;;;;;;;7.90;3.78;;;;;;;;;;5000827;28;20056;-62
2022/04/21 05:54:35;;;;;;;5.40;4.28;;;;;;;;;;4997377;28;20091;-62
2022/04/21 05:57:02;;;;;;;9.38;4.38;;;;;;;;;;5001500;28;20089;-62
2022/04/21 05:59:29;;;;;;;4.55;3.80;;;;;;;;;;4996230;28;20050;-62
2022/04/21 06:01:56;;;;;;;;;;;;;;;;;;5000099;28;20058;-62
2022/04/21 06:04:23;;;;;;;6.03;4.00;;;;;;;;;;4999954;28;19954;-62
2022/04/21 06:06:50;;;;;;;6.40;4.38;;;;;;;;;;5002323;28;20140;-62
2022/04/21 06:09:23;;;;;;;7.63;4.13;;;;;;;;;;4998457;28;20133;-62
2022/04/21 06:11:50;;;;;;;6.28;4.18;;;;;;;;;;4981808;28;20587;-63
2022/04/21 06:14:16;;;;;;;7.65;3.78;;;;;;;;;;4998099;28;20671;-63
2022/04/21 06:16:45;;;;;;;4.85;3.58;;;;;;;;;;4999727;28;20145;-63
2022/04/21 06:19:12;;;;;;;6.10;3.92;;;;;;;;;;4998564;28;20050;-63
2022/04/21 06:21:38;;;;;;;4.55;3.75;;;;;;;;;;5001261;28;20125;-63
2022/04/21 06:24:08;;;;;;;6.72;3.88;;;;;;;;;;5004211;28;20129;-63
2022/04/21 06:26:35;;;;;;;9.35;4.10;;;;;;;;;;5002414;28;20085;-63
2022/04/21 06:29:02;;;;;;;4.63;3.63;;;;;;;;;;4997219;28;20088;-63
2022/04/21 06:31:36;;;;;;;5.97;4.03;;;;;;;;;;5000497;28;20133;-63
2022/04/21 06:34:03;;;;;;;5.65;4.03;;;;;;;;;;5000836;28;20470;-63
2022/04/21 06:36:30;;;;;;;5.97;3.67;;;;;;;;;;4999820;28;20062;-63
2022/04/21 06:38:58;;;;;;;12.10;3.85;;;;;;;;;;4998037;28;20078;-63
2022/04/21 06:41:24;;;;;;;6.63;3.58;;;;;;;;;;5002650;28;20086;-64
2022/04/21 06:49:21;;;;;;;6.20;3.75;;;;;;;;;;4997387;28;20066;-63
2022/04/21 06:51:48;;;;;;;5.93;3.90;;;;;;;;;;4996512;28;20541;-63
2022/04/21 06:54:14;;;;;;;5.80;3.20;;;;;;;;;;4998771;28;20050;-64
2022/04/21 06:56:43;;;;;;;5.35;3.78;;;;;;;;;;4997942;28;20148;-64
2022/04/21 06:59:10;;;;;;;6.65;3.65;;;;;;;;;;5002339;28;20077;-64
2022/04/21 07:01:37;;;;;;;8.43;3.58;;;;;;;;;;5004576;28;20141;-64
2022/04/21 07:04:03;;;;;;;7.03;3.65;;;;;;;;;;5003501;28;20064;-64
2022/04/21 07:06:36;;;;;;;7.03;3.42;;;;;;;;;;4999822;28;20054;-64
2022/04/21 07:09:03;;;;;;;5.57;3.50;;;;;;;;;;5001399;28;20133;-64
2022/04/21 07:11:30;;;;;;;6.15;3.80;;;;;;;;;;5003840;28;20088;-64
2022/04/21 07:14:04;;;;;;;5.47;3.15;;;;;;;;;;5001240;28;20086;-64
2022/04/21 07:16:30;;;;;;;4.85;3.58;;;;;;;;;;5003439;28;20054;-64
2022/04/21 07:18:57;;;;;;;6.63;3.50;;;;;;;;;;5002020;28;20060;-64
2022/04/21 07:21:30;;;;;;;5.32;3.25;;;;;;;;;;5001304;28;20082;-65
2022/04/21 07:23:57;;;;;;;4.78;3.67;;;;;;;;;;5001369;28;20058;-64
2022/04/21 07:26:23;;;;;;;4.20;3.30;;;;;;;;;;5005390;28;20130;-65
2022/04/21 07:28:57;;;;;;;5.35;3.28;;;;;;;;;;5003857;28;20133;-65
2022/04/21 07:31:23;;;;;;;5.35;2.92;;;;;;;;;;5002606;28;20097;-65
2022/04/21 07:33:50;;;;;;;5.15;3.35;;;;;;;;;;5001219;28;20173;-65
2022/04/21 07:36:24;;;;;;;5.82;2.97;;;;;;;;;;5002480;28;20054;-66
2022/04/21 07:38:51;;;;;;;5.63;3.00;;;;;;;;;;5001062;28;20062;-65
2022/04/21 07:41:19;;;;;;;7.93;3.20;;;;;;;;;;5007941;28;20061;-65
2022/04/21 07:43:53;;;;;;;10.80;3.88;;;;;;;;;;5003547;28;20556;-66
2022/04/21 07:46:19;;;;;;;6.43;3.60;;;;;;;;;;5003708;28;20081;-65
2022/04/21 07:51:38;;;;;;;4.00;2.60;;;;;;;;;;5003372;28;20141;-66
2022/04/21 07:54:05;;;;;;;5.05;3.30;;;;;;;;;;5001213;28;20537;-66
2022/04/21 07:56:31;;;;;;;6.05;3.28;;;;;;;;;;4998565;28;20156;-66
2022/04/21 07:58:58;;;;;;;4.95;2.88;;;;;;;;;;5001744;28;20092;-66
2022/04/21 08:01:25;;;;;;;5.83;3.27;;;;;;;;;;5003930;28;20139;-66
2022/04/21 08:03:51;;;;;;;4.40;3.07;;;;;;;;;;5000147;28;20090;-66
2022/04/21 08:06:24;;;;;;;3.92;2.67;;;;;;;;;;5002306;28;20485;-66
2022/04/21 08:08:51;;;;;;;4.22;2.92;;;;;;;;;;5001881;28;20129;-66
2022/04/21 08:11:17;;;;;;;6.03;3.42;;;;;;;;;;5003258;28;20104;-66
2022/04/21 08:13:45;;;;;;;3.75;2.75;;;;;;;;;;5000192;28;20164;-66
2022/04/21 08:16:11;;;;;;;7.35;2.92;;;;;;;;;;5001932;28;20042;-66
2022/04/21 08:18:38;;;;;;;7.50;3.00;;;;;;;;;;5002707;28;20072;-66
2022/04/21 08:21:07;;;;;;;4.40;3.10;;;;;;;;;;5000948;28;20046;-66
2022/04/21 08:23:42;;;;;;;5.28;3.08;;;;;;;;;;4999312;28;20061;-67
2022/04/21 08:34:42;;;;;;;5.25;2.80;;;;;;;;;;5000987;28;20046;-67
2022/04/21 08:37:09;;;;;;;6.83;3.07;;;;;;;;;;5003528;28;20161;-67
2022/04/21 08:39:35;;;;;;;5.07;2.97;;;;;;;;;;5000798;28;20142;-67
2022/04/21 08:42:10;;;;;;;8.88;2.70;;;;;;;;;;5002174;28;20046;-68
2022/04/21 08:44:44;;;;;;;5.75;2.80;;;;;;;;;;5000178;28;20133;-67
2022/04/21 08:47:11;;;;;;;5.65;3.00;;;;;;;;;;4997367;28;20050;-67
2022/04/21 08:49:38;;;;;;;7.93;3.53;;;;;;;;;;4999435;28;20414;-67
2022/04/21 08:52:08;;;;;;;7.50;3.28;;;;;;;;;;5002179;28;20137;-67
2022/04/21 08:54:35;;;;;;;7.23;3.23;;;;;;;;;;4999342;28;20125;-67
2022/04/21 08:57:03;;;;;;;3.58;2.80;;;;;;;;;;4983144;28;20112;-67
2022/04/21 08:59:30;;;;;;;6.90;3.42;;;;;;;;;;4986436;28;20129;-67
2022/04/21 09:02:00;;;;;;;5.85;3.08;;;;;;;;;;4988882;28;20452;-67
2022/04/21 09:04:29;;;;;;;6.60;2.85;;;;;;;;;;4982936;28;20143;-67
2022/04/21 09:07:13;;;;;;;7.20;3.33;;;;;;;;;;4982964;28;20054;-67
2022/04/21 09:09:39;;;;;;;5.13;3.20;;;;;;;;;;4989391;28;20133;-67
2022/04/21 09:12:06;;;;;;;4.75;3.17;;;;;;;;;;4983909;28;20561;-68
2022/04/21 09:14:33;;;;;;;5.07;2.80;;;;;;;;;;4981656;28;20133;-67
2022/04/21 09:17:05;;;;;;;4.28;2.63;;;;;;;;;;4981725;28;20113;-68
2022/04/21 09:19:53;;;;;;;7.53;2.85;;;;;;;;;;4983023;28;20057;-67
2022/04/21 09:22:20;;;;;;;4.43;2.80;;;;;;;;;;4984717;28;20125;-67
2022/04/21 09:24:50;;;;;;;7.03;2.75;;;;;;;;;;4983752;28;20155;-67
2022/04/21 09:27:16;;;;;;;3.28;2.70;;;;;;;;;;4985426;28;20080;-68
2022/04/21 09:29:43;;;;;;;6.88;2.83;;;;;;;;;;4980797;28;20081;-68
2022/04/21 09:32:09;;;;;;;5.75;2.95;;;;;;;;;;4983770;28;20457;-68
2022/04/21 09:34:36;;;;;;;4.15;2.95;;;;;;;;;;4981618;28;20137;-68
2022/04/21 09:37:05;;;;;;;4.55;2.60;;;;;;;;;;4984902;28;20141;-68
2022/04/21 09:39:48;;;;;;;5.85;2.88;;;;;;;;;;4982086;28;20121;-68
2022/04/21 09:42:22;;;;;;;5.70;2.65;;;;;;;;;;4984050;28;20086;-68
2022/04/21 09:47:34;;;;;;;7.43;2.53;;;;;;;;;;4983186;28;20173;-68
2022/04/21 09:50:14;;;;;;;5.45;2.72;;;;;;;;;;4981316;28;20125;-68
2022/04/21 09:52:52;;;;;;;5.72;2.60;;;;;;;;;;4981230;28;20055;-68
2022/04/21 09:55:26;;;;;;;7.90;2.55;;;;;;;;;;4986275;28;20112;-68
2022/04/21 09:58:04;;;;;;;5.78;2.95;;;;;;;;;;4998749;28;20583;-68
2022/04/21 10:00:31;;;;;;;8.15;2.85;;;;;;;;;;4995526;28;20669;-68
2022/04/21 10:02:59;;;;;;;4.85;2.45;;;;;;;;;;5000002;28;20184;-68
2022/04/21 10:05:25;;;;;;;6.03;2.38;;;;;;;;;;5001158;28;20059;-68
2022/04/21 10:07:54;;;;;;;3.28;2.38;;;;;;;;;;4993306;28;20153;-68
2022/04/21 10:10:20;;;;;;;3.28;2.22;;;;;;;;;;4997412;28;20070;-68
2022/04/21 10:12:48;;;;;;;4.28;2.30;;;;;;;;;;4994265;28;20133;-69
2022/04/21 10:15:15;;;;;;;8.88;2.75;;;;;;;;;;4999405;28;20479;-68
2022/04/21 10:17:41;;;;;;;4.03;2.25;;;;;;;;;;4998402;28;20133;-69
2022/04/21 10:20:08;;;;;;;5.00;2.50;;;;;;;;;;4999482;28;20066;-68
2022/04/21 10:22:35;;;;;;;4.37;2.53;;;;;;;;;;4999166;28;20490;-68
2022/04/21 10:25:02;;;;;;;5.70;2.30;;;;;;;;;;4994305;28;20309;-68
2022/04/21 10:27:38;;;;;;;5.90;2.17;;;;;;;;;;4998393;28;20081;-68
2022/04/21 10:30:12;;;;;;;7.32;2.15;;;;;;;;;;4997962;28;20089;-68
2022/04/21 10:32:55;;;;;;;3.60;2.20;;;;;;;;;;5002368;28;20054;-68
2022/04/21 10:35:28;;;;;;;7.20;2.15;;;;;;;;;;4998902;28;20462;-68
2022/04/21 10:38:10;;;;;;;7.55;2.45;;;;;;;;;;4996658;28;20086;-68
2022/04/21 10:40:58;;;;;;;4.05;2.15;;;;;;;;;;5000823;28;20050;-68
2022/04/21 10:43:24;;;;;;;9.65;3.00;;;;;;;;;;4996437;28;20122;-68
2022/04/21 10:46:03;;;;;;;7.40;2.65;;;;;;;;;;4995185;28;20132;-68
2022/04/21 10:48:43;;;;;;;6.47;2.15;;;;;;;;;;4997439;28;20056;-68
2022/04/21 10:51:10;;;;;;;11.77;2.70;;;;;;;;;;4996107;28;20157;-68
2022/04/21 10:59:50;;;;;;;5.13;2.25;;;;;;;;;;4997912;28;20070;-68
2022/04/21 11:02:17;;;;;;;5.80;2.72;;;;;;;;;;4997295;28;20472;-69
2022/04/21 11:04:43;;;;;;;3.47;2.17;;;;;;;;;;4999649;28;20511;-68
2022/04/21 11:07:11;;;;;;;6.55;2.53;;;;;;;;;;4994053;28;20454;-68
2022/04/21 11:09:46;;;;;;;8.15;2.17;;;;;;;;;;4997145;28;20131;-68
2022/04/21 11:12:43;;;;;;;5.90;2.15;;;;;;;;;;4996978;28;20050;-68
2022/04/21 11:15:31;;;;;;;4.65;2.08;;;;;;;;;;4998427;28;20505;-68
2022/04/21 11:18:20;;;;;;;4.40;2.25;;;;;;;;;;4997447;28;20151;-68
2022/04/21 11:20:48;;;;;;;4.20;2.40;;;;;;;;;;4982583;28;20050;-68
2022/04/21 11:23:14;;;;;;;;;;;;;;;;;;4999159;28;20124;-68
2022/04/21 11:25:45;;;;;;;11.45;2.00;;;;;;;;;;4994927;28;19932;-68
2022/04/21 11:28:25;;;;;;;7.07;2.78;;;;;;;;;;4996646;28;20145;-68
2022/04/21 11:30:55;;;;;;;6.97;2.28;;;;;;;;;;5000084;28;20065;-69
2022/04/21 11:33:31;;;;;;;6.53;2.50;;;;;;;;;;4997605;28;20054;-69
2022/04/21 11:36:04;;;;;;;6.10;1.98;;;;;;;;;;4998536;28;20113;-69
2022/04/21 11:38:35;;;;;;;;;;;;;;;;;;4999670;28;20050;-69
2022/04/21 11:41:02;;;;;;;3.15;1.60;;;;;;;;;;5000219;28;19961;-69
2022/04/21 11:43:29;;;;;;;2.50;1.67;;;;;;;;;;5000207;28;20082;-68
2022/04/21 11:45:56;;;;;;;7.60;1.85;;;;;;;;;;4998246;28;20133;-68
2022/04/21 11:48:27;;;;;;;2.80;1.80;;;;;;;;;;5004076;28;20074;-68
2022/04/21 11:50:57;;;;;;;2.70;1.67;;;;;;;;;;5002226;28;20143;-68
2022/04/21 11:53:26;;;;;;;7.25;1.73;;;;;;;;;;5002048;28;20082;-69
2022/04/21 11:55:53;;;;;;;4.05;2.00;;;;;;;;;;5000327;28;20133;-69
2022/04/21 11:58:29;;;;;;;5.03;1.58;;;;;;;;;;4997227;28;20493;-69
2022/04/21 12:07:02;;;;;;;2.38;1.73;;;;;;;;;;5000576;28;20053;-68
2022/04/21 12:09:35;;;;;;;4.80;1.80;;;;;;;;;;4999195;28;20054;-68
2022/04/21 12:12:03;;;;;;;6.13;1.88;;;;;;;;;;5000773;28;20089;-69
2022/04/21 12:14:30;;;;;;;3.60;2.03;;;;;;;;;;5001788;28;20069;-69
2022/04/21 12:16:58;;;;;;;4.05;2.08;;;;;;;;;;5000404;28;20125;-68
2022/04/21 12:19:42;;;;;;;5.43;1.80;;;;;;;;;;4997716;28;20129;-68
2022/04/21 12:22:16;;;;;;;2.70;1.50;;;;;;;;;;4998001;28;20096;-68
2022/04/21 12:24:45;;;;;;;2.60;1.67;;;;;;;;;;5002475;28;20506;-66
2022/04/21 12:27:13;;;;;;;4.80;1.70;;;;;;;;;;4999252;28;20133;-66
2022/04/21 12:29:47;;;;;;;2.95;1.80;;;;;;;;;;4999591;28;20469;-69
2022/04/21 12:32:22;;;;;;;4.00;1.65;;;;;;;;;;4998201;28;20046;-69
2022/04/21 12:34:49;;;;;;;4.07;1.65;;;;;;;;;;4999637;28;20180;-69
2022/04/21 12:37:23;;;;;;;3.00;1.70;;;;;;;;;;5000419;28;20080;-69
2022/04/21 12:39:49;;;;;;;5.22;1.77;;;;;;;;;;5007245;28;20133;-69
2022/04/21 12:42:40;;;;;;;4.27;1.27;;;;;;;;;;5001617;28;20054;-68
2022/04/21 12:45:10;;;;;;;1.80;1.35;;;;;;;;;;5004332;28;20129;-69
2022/04/21 12:47:43;;;;;;;3.42;1.35;;;;;;;;;;5004568;28;20161;-68
2022/04/21 12:50:16;;;;;;;2.28;1.35;;;;;;;;;;5000296;28;20085;-66
2022/04/21 12:52:47;;;;;;;1.67;1.27;;;;;;;;;;5001218;28;20141;-66
2022/04/21 12:55:21;;;;;;;2.88;1.38;;;;;;;;;;5000739;28;20157;-65
2022/04/21 12:58:17;;;;;;;2.90;1.17;;;;;;;;;;5002376;28;20140;-69
2022/04/21 13:00:48;;;;;;;2.53;1.15;;;;;;;;;;4984602;28;20077;-68
2022/04/21 13:03:15;;;;;;;4.13;1.10;;;;;;;;;;4999982;28;20076;-68
2022/04/21 13:05:50;;;;;;;4.05;1.15;;;;;;;;;;5000282;28;20042;-68
2022/04/21 13:08:18;;;;;;;2.55;1.20;;;;;;;;;;5001673;28;20054;-68
2022/04/21 13:10:45;;;;;;;2.30;1.25;;;;;;;;;;5003621;28;20513;-68
2022/04/21 13:13:12;;;;;;;2.13;0.98;;;;;;;;;;4996630;28;20054;-68
2022/04/21 13:15:45;;;;;;;3.70;1.20;;;;;;;;;;4997629;28;20133;-68
2022/04/21 13:18:12;;;;;;;1.48;0.90;;;;;;;;;;5002069;28;20609;-68
2022/04/21 13:23:28;;;;;;;5.90;1.13;;;;;;;;;;4999115;28;20396;-68
2022/04/21 13:25:55;;;;;;;3.83;1.23;;;;;;;;;;4999061;28;20058;-68
2022/04/21 13:28:41;;;;;;;1.20;1.10;;;;;;;;;;4999538;28;20057;-68
2022/04/21 13:33:54;;;;;;;2.47;1.17;;;;;;;;;;4996396;28;20105;-68
2022/04/21 13:36:27;;;;;;;5.03;1.15;;;;;;;;;;4997660;28;20121;-66
2022/04/21 13:38:54;;;;;;;3.40;0.93;;;;;;;;;;4986124;28;20058;-65
2022/04/21 13:41:20;;;;;;;2.47;1.00;;;;;;;;;;4999666;28;20141;-68
2022/04/21 13:43:53;;;;;;;2.90;1.40;;;;;;;;;;5000553;28;20061;-66
2022/04/21 13:46:40;;;;;;;2.67;1.30;;;;;;;;;;4998596;28;20520;-66
2022/04/21 13:49:09;;;;;;;4.20;1.10;;;;;;;;;;4997309;28;20506;-68
2022/04/21 13:51:39;;;;;;;1.90;0.90;;;;;;;;;;5001680;28;20089;-66
2022/04/21 13:54:06;;;;;;;2.55;1.20;;;;;;;;;;4998035;28;20088;-66
2022/04/21 13:56:36;;;;;;;3.67;1.33;;;;;;;;;;5004293;28;20468;-65
2022/04/21 13:59:04;;;;;;;3.63;1.50;;;;;;;;;;4998172;28;20097;-65
2022/04/21 14:01:31;;;;;;;2.20;1.00;;;;;;;;;;4999646;28;20137;-66
2022/04/21 14:03:57;;;;;;;2.47;1.10;;;;;;;;;;4998618;28;20502;-68
2022/04/21 14:06:24;;;;;;;2.08;1.27;;;;;;;;;;4999347;28;20105;-68
2022/04/21 14:08:51;;;;;;;6.10;1.20;;;;;;;;;;4999470;28;20638;-68
2022/04/21 14:11:18;;;;;;;2.80;1.38;;;;;;;;;;4997910;28;20157;-68
2022/04/21 14:13:45;;;;;;;5.10;1.30;;;;;;;;;;4996957;28;20133;-65
2022/04/21 14:16:12;;;;;;;4.28;1.10;;;;;;;;;;4999298;28;20148;-67
2022/04/21 14:19:04;;;;;;;2.55;1.40;;;;;;;;;;4999252;28;20529;-65
2022/04/21 14:21:37;;;;;;;6.68;1.30;;;;;;;;;;4998291;28;20050;-65
2022/04/21 14:24:04;;;;;;;5.00;1.30;;;;;;;;;;4999364;28;20457;-65
2022/04/21 14:26:30;;;;;;;1.75;1.20;;;;;;;;;;4998913;28;20356;-68
2022/04/21 14:29:06;;;;;;;2.13;1.08;;;;;;;;;;4998518;28;20140;-68
2022/04/21 14:31:33;;;;;;;5.30;1.20;;;;;;;;;;5003084;28;20447;-68
2022/04/21 14:34:00;;;;;;;3.05;1.10;;;;;;;;;;4999930;28;20405;-68
2022/04/21 14:36:32;;;;;;;2.65;1.10;;;;;;;;;;5001378;28;20089;-67
2022/04/21 14:44:36;;;;;;;3.05;1.10;;;;;;;;;;4984641;28;20082;-65
2022/04/21 14:47:04;;;;;;;4.45;1.30;;;;;;;;;;4996881;28;20600;-65
2022/04/21 14:49:50;;;;;;;2.00;1.08;;;;;;;;;;5000200;28;20050;-65
2022/04/21 14:52:19;;;;;;;3.20;1.30;;;;;;;;;;4999189;28;20086;-65
2022/04/21 14:54:46;;;;;;;2.17;1.10;;;;;;;;;;4998016;28;20555;-65
2022/04/21 14:57:13;;;;;;;16.95;1.50;;;;;;;;;;4997290;28;20053;-65
2022/04/21 14:59:41;;;;;;;4.40;1.25;;;;;;;;;;4995635;28;20054;-65
2022/04/21 15:02:08;;;;;;;2.45;1.20;;;;;;;;;;4998231;28;20121;-65
2022/04/21 15:04:35;;;;;;;1.55;1.30;;;;;;;;;;5000497;28;20100;-65
2022/04/21 15:07:03;;;;;;;4.35;1.27;;;;;;;;;;5000201;28;20497;-65
2022/04/21 15:09:29;;;;;;;2.25;1.42;;;;;;;;;;4997370;28;20138;-67
2022/04/21 15:11:55;;;;;;;1.77;1.35;;;;;;;;;;4998556;28;20557;-67
2022/04/21 15:14:28;;;;;;;3.33;1.50;;;;;;;;;;4997334;28;20569;-67
2022/04/21 15:16:56;;;;;;;3.93;1.40;;;;;;;;;;4997397;28;20050;-67
2022/04/21 15:19:22;;;;;;;1.48;1.08;;;;;;;;;;4996150;28;20058;-67
2022/04/21 15:21:51;;;;;;;4.97;1.02;;;;;;;;;;5000496;28;20475;-67
2022/04/21 15:24:17;;;;;;;6.25;1.40;;;;;;;;;;4998333;28;20140;-67
2022/04/21 15:26:43;;;;;;;4.72;1.42;;;;;;;;;;5000799;28;20133;-66
2022/04/21 15:29:11;;;;;;;6.57;1.55;;;;;;;;;;5002862;28;20050;-67
2022/04/21 15:31:38;;;;;;;1.10;1.00;;;;;;;;;;5001672;28;20085;-67
2022/04/21 15:34:04;;;;;;;3.72;1.17;;;;;;;;;;5002031;28;20043;-67
2022/04/21 15:36:31;;;;;;;2.85;1.33;;;;;;;;;;4997286;28;20537;-67
2022/04/21 15:38:57;;;;;;;1.17;0.90;;;;;;;;;;5000728;28;20145;-67
2022/04/21 15:41:24;;;;;;;2.15;1.10;;;;;;;;;;5002391;28;20133;-67
2022/04/21 15:43:50;;;;;;;8.30;1.25;;;;;;;;;;5003101;28;20140;-67
2022/04/21 15:46:17;;;;;;;7.85;1.33;;;;;;;;;;5002598;28;20593;-65
2022/04/21 15:48:43;;;;;;;7.70;1.10;;;;;;;;;;5000154;28;20050;-65
2022/04/21 15:51:14;;;;;;;1.70;1.25;;;;;;;;;;4984156;28;20060;-67
2022/04/21 15:59:12;;;;;;;3.58;1.27;;;;;;;;;;5002711;28;20128;-67
2022/04/21 16:01:40;;;;;;;2.38;1.25;;;;;;;;;;4998422;28;20092;-66
2022/04/21 16:04:06;;;;;;;1.92;1.10;;;;;;;;;;5002720;28;20066;-67
2022/04/21 16:06:33;;;;;;;2.93;1.40;;;;;;;;;;4995684;28;20057;-67
2022/04/21 16:09:00;;;;;;;1.65;1.50;;;;;;;;;;5004686;28;20129;-68